Time;durP1;ratioP1;P1;durP2;ratioP2;P2;SDS_P1;SDS_P2;PMS_P1;PMS_P2;Temp;Humidity;BMP_temperature;BMP_pressure;BME280_temperature;BME280_humidity;BME280_pressure;Samples;Min_cycle;Max_cycle;Signal;HPM_P1;HPM_P2
2022/04/07 00:02:10;;;;;;;0.77;0.40;;;12.40;89.70;;;;;;10156054;28;20040;-62
2022/04/07 00:07:01;;;;;;;0.55;0.30;;;12.40;89.50;;;;;;10139320;28;20373;-63
2022/04/07 00:11:52;;;;;;;0.30;0.30;;;12.40;89.60;;;;;;10138626;28;20047;-64
2022/04/07 00:16:42;;;;;;;0.60;0.30;;;12.40;89.70;;;;;;10150797;28;20101;-64
2022/04/07 00:21:38;;;;;;;0.30;0.25;;;12.40;89.50;;;;;;10149352;28;20555;-63
2022/04/07 00:26:29;;;;;;;0.30;0.25;;;12.40;89.60;;;;;;10151772;28;20028;-62
2022/04/07 00:31:20;;;;;;;0.32;0.32;;;12.40;89.70;;;;;;10159945;28;20047;-63
2022/04/07 00:36:10;;;;;;;0.52;0.40;;;12.40;89.60;;;;;;10161728;28;20040;-63
2022/04/07 00:41:01;;;;;;;0.88;0.50;;;12.40;89.40;;;;;;10155314;28;20525;-63
2022/04/07 00:45:52;;;;;;;1.05;0.40;;;12.30;89.40;;;;;;10151863;28;20487;-64
2022/04/07 00:50:42;;;;;;;1.55;0.43;;;12.20;89.30;;;;;;10140340;28;20529;-64
2022/04/07 00:55:35;;;;;;;0.70;0.63;;;12.30;89.10;;;;;;10149208;28;20150;-63
2022/04/07 01:00:26;;;;;;;2.40;0.75;;;12.30;89.00;;;;;;10159383;28;20527;-63
2022/04/07 01:05:20;;;;;;;2.10;0.40;;;12.20;88.90;;;;;;10157074;28;20032;-63
2022/04/07 01:10:11;;;;;;;0.95;0.50;;;12.10;88.80;;;;;;10149458;28;20489;-63
2022/04/07 01:15:06;;;;;;;0.70;0.40;;;12.20;88.60;;;;;;10154995;28;20066;-63
2022/04/07 01:19:56;;;;;;;0.73;0.47;;;12.10;88.50;;;;;;10148516;28;20529;-63
2022/04/07 01:24:47;;;;;;;1.02;0.40;;;12.10;88.30;;;;;;10151823;28;20025;-63
2022/04/07 01:29:38;;;;;;;0.52;0.45;;;12.10;88.40;;;;;;10153548;28;20029;-63
2022/04/07 01:34:28;;;;;;;0.38;0.38;;;12.00;88.50;;;;;;10153267;28;20037;-63
2022/04/07 01:39:25;;;;;;;0.65;0.38;;;12.00;88.40;;;;;;10135820;28;20032;-62
2022/04/07 01:44:16;;;;;;;0.70;0.68;;;12.10;88.20;;;;;;10165199;28;20032;-62
2022/04/07 01:49:07;;;;;;;0.82;0.43;;;12.10;88.10;;;;;;10145382;28;20116;-62
2022/04/07 01:53:58;;;;;;;0.65;0.30;;;12.00;88.40;;;;;;10162584;28;20091;-63
2022/04/07 01:58:49;;;;;;;0.63;0.30;;;12.10;88.40;;;;;;10159606;28;20111;-63
2022/04/07 02:03:40;;;;;;;1.17;0.45;;;12.00;88.40;;;;;;10161259;28;20032;-63
2022/04/07 02:08:30;;;;;;;1.85;0.32;;;12.00;88.40;;;;;;10155298;28;20040;-63
2022/04/07 02:13:21;;;;;;;0.38;0.30;;;12.00;88.30;;;;;;10158540;28;20026;-63
2022/04/07 02:18:12;;;;;;;0.25;0.25;;;12.00;88.50;;;;;;10151888;28;20039;-63
2022/04/07 02:23:03;;;;;;;0.38;0.38;;;12.00;88.40;;;;;;10148276;28;20044;-63
2022/04/07 02:27:55;;;;;;;1.13;0.50;;;12.00;88.30;;;;;;10158452;28;20142;-62
2022/04/07 02:32:48;;;;;;;0.25;0.22;;;12.00;88.30;;;;;;10159217;28;20432;-62
2022/04/07 02:37:39;;;;;;;0.40;0.28;;;12.00;88.20;;;;;;10170487;28;20116;-63
2022/04/07 02:42:29;;;;;;;0.57;0.30;;;12.00;88.30;;;;;;10170347;28;20161;-63
2022/04/07 02:47:20;;;;;;;0.63;0.30;;;12.10;88.20;;;;;;10153352;28;20029;-63
2022/04/07 02:52:11;;;;;;;2.75;0.43;;;12.10;88.00;;;;;;10160538;28;20149;-62
2022/04/07 02:57:03;;;;;;;0.20;0.20;;;12.20;87.80;;;;;;10150603;28;20515;-62
2022/04/07 03:01:56;;;;;;;1.30;0.43;;;12.20;87.80;;;;;;10168447;28;20414;-62
2022/04/07 03:06:46;;;;;;;0.73;0.35;;;12.30;87.60;;;;;;10162617;28;20024;-63
2022/04/07 03:11:37;;;;;;;0.50;0.40;;;12.30;87.60;;;;;;10153845;28;20040;-63
2022/04/07 03:16:28;;;;;;;0.82;0.38;;;12.10;87.80;;;;;;10159215;28;20024;-63
2022/04/07 03:21:19;;;;;;;0.35;0.20;;;12.10;87.90;;;;;;10156914;28;20029;-63
2022/04/07 03:26:10;;;;;;;1.20;0.20;;;12.00;88.00;;;;;;10154698;28;20024;-63
2022/04/07 03:31:01;;;;;;;1.40;0.40;;;12.00;87.80;;;;;;10152254;28;20047;-63
2022/04/07 03:35:52;;;;;;;0.55;0.40;;;12.00;87.70;;;;;;10156117;28;20510;-63
2022/04/07 03:40:43;;;;;;;0.98;0.40;;;11.90;87.90;;;;;;10157697;28;20048;-63
2022/04/07 03:45:33;;;;;;;0.30;0.30;;;11.80;88.10;;;;;;10158918;28;20115;-64
2022/04/07 03:50:24;;;;;;;2.08;1.15;;;11.80;88.20;;;;;;10145345;28;20486;-63
2022/04/07 03:55:15;;;;;;;0.47;0.40;;;11.80;88.40;;;;;;10149487;28;20028;-63
2022/04/07 04:00:06;;;;;;;0.50;0.30;;;11.80;88.50;;;;;;10139910;28;20105;-62
2022/04/07 04:04:57;;;;;;;0.40;0.40;;;11.80;88.70;;;;;;10170241;28;20501;-63
2022/04/07 04:09:47;;;;;;;0.40;0.40;;;11.80;88.80;;;;;;10156463;28;20032;-62
2022/04/07 04:14:38;;;;;;;0.93;0.60;;;11.70;89.10;;;;;;10158876;28;20020;-63
2022/04/07 04:19:29;;;;;;;2.40;0.57;;;11.60;89.40;;;;;;10154480;28;20027;-62
2022/04/07 04:24:19;;;;;;;0.40;0.32;;;11.60;89.50;;;;;;10136593;28;20027;-64
2022/04/07 04:29:10;;;;;;;1.17;0.57;;;11.50;89.70;;;;;;10155581;28;20082;-64
2022/04/07 04:34:01;;;;;;;0.38;0.38;;;11.50;89.90;;;;;;10133628;28;20033;-63
2022/04/07 04:38:51;;;;;;;0.40;0.40;;;11.50;90.10;;;;;;10154930;28;20044;-64
2022/04/07 04:43:42;;;;;;;0.28;0.20;;;11.60;90.00;;;;;;10159246;28;20111;-63
2022/04/07 04:48:38;;;;;;;0.75;0.40;;;11.50;89.90;;;;;;10144528;28;20027;-63
2022/04/07 04:53:29;;;;;;;0.55;0.45;;;11.60;90.10;;;;;;10153526;28;20521;-64
2022/04/07 04:58:19;;;;;;;1.67;0.40;;;11.60;90.20;;;;;;10159104;28;20081;-62
2022/04/07 05:03:10;;;;;;;1.75;0.55;;;11.60;90.20;;;;;;10165401;28;20407;-63
2022/04/07 05:08:01;;;;;;;0.85;0.30;;;11.60;90.30;;;;;;10173636;28;20035;-66
2022/04/07 05:12:52;;;;;;;1.05;0.30;;;11.60;90.40;;;;;;10150103;28;20533;-63
2022/04/07 05:17:49;;;;;;;0.75;0.60;;;11.60;90.50;;;;;;10148717;28;20041;-64
2022/04/07 05:22:40;;;;;;;3.88;0.70;;;11.60;90.40;;;;;;10150228;28;20067;-63
2022/04/07 05:27:36;;;;;;;2.05;0.50;;;11.60;90.40;;;;;;10161168;28;20060;-62
2022/04/07 05:32:27;;;;;;;0.30;0.28;;;11.60;90.50;;;;;;10144103;28;20568;-63
2022/04/07 05:37:17;;;;;;;0.40;0.38;;;11.60;90.50;;;;;;10164751;28;20040;-62
2022/04/07 05:42:08;;;;;;;0.35;0.20;;;11.70;90.50;;;;;;10147890;28;20553;-65
2022/04/07 05:46:59;;;;;;;0.70;0.20;;;11.70;90.50;;;;;;10156481;28;20425;-63
2022/04/07 05:51:53;;;;;;;0.50;0.32;;;11.80;90.60;;;;;;10156149;28;20028;-64
2022/04/07 05:56:44;;;;;;;1.20;0.25;;;11.70;90.60;;;;;;10148035;28;20044;-63
2022/04/07 06:01:35;;;;;;;1.42;0.38;;;11.70;90.80;;;;;;10172088;28;20032;-63
2022/04/07 06:06:25;;;;;;;1.45;0.20;;;11.70;90.70;;;;;;10154433;28;20035;-62
2022/04/07 06:11:16;;;;;;;0.17;0.13;;;11.70;90.70;;;;;;10157456;28;20025;-61
2022/04/07 06:16:07;;;;;;;1.75;0.25;;;11.80;90.70;;;;;;10163713;28;20188;-62
2022/04/07 06:20:57;;;;;;;0.77;0.43;;;11.70;90.90;;;;;;10157157;28;20114;-61
2022/04/07 06:25:48;;;;;;;0.40;0.40;;;11.70;91.00;;;;;;10161948;28;20402;-62
2022/04/07 06:30:39;;;;;;;0.50;0.28;;;11.70;91.00;;;;;;10152196;28;20226;-62
2022/04/07 06:35:29;;;;;;;0.45;0.28;;;11.70;91.20;;;;;;10157987;28;20050;-62
2022/04/07 06:40:23;;;;;;;1.80;0.50;;;11.80;91.10;;;;;;10160876;28;20044;-60
2022/04/07 06:45:13;;;;;;;0.63;0.50;;;11.80;91.10;;;;;;10162252;28;20082;-59
2022/04/07 06:50:15;;;;;;;0.65;0.30;;;11.80;91.20;;;;;;10142741;28;20379;-61
2022/04/07 06:55:06;;;;;;;1.13;0.52;;;11.80;91.30;;;;;;10162179;28;20115;-61
2022/04/07 06:59:57;;;;;;;0.57;0.50;;;11.90;91.20;;;;;;10155013;28;20047;-63
2022/04/07 07:04:47;;;;;;;2.10;0.95;;;11.90;91.30;;;;;;10165729;28;20084;-61
2022/04/07 07:09:38;;;;;;;0.80;0.30;;;11.90;91.20;;;;;;10166231;28;20484;-62
2022/04/07 07:14:29;;;;;;;0.82;0.30;;;12.00;91.20;;;;;;10147223;28;20068;-62
2022/04/07 07:19:26;;;;;;;0.75;0.38;;;12.00;91.20;;;;;;10152283;28;20086;-61
2022/04/07 07:24:16;;;;;;;0.20;0.20;;;12.10;91.10;;;;;;10166034;28;20036;-61
2022/04/07 07:29:07;;;;;;;2.95;0.47;;;12.20;91.10;;;;;;10151838;28;20428;-62
2022/04/07 07:33:58;;;;;;;0.55;0.30;;;12.30;90.90;;;;;;10156491;28;20221;-61
2022/04/07 07:38:48;;;;;;;0.68;0.30;;;12.40;90.90;;;;;;10140663;28;20425;-62
2022/04/07 07:43:39;;;;;;;0.35;0.30;;;12.40;90.80;;;;;;10157199;28;20119;-63
2022/04/07 07:48:30;;;;;;;0.30;0.30;;;12.50;90.70;;;;;;10129789;28;20116;-61
2022/04/07 07:53:20;;;;;;;2.03;0.60;;;12.70;90.50;;;;;;10156379;28;20048;-60
2022/04/07 07:58:12;;;;;;;1.00;0.65;;;12.70;90.40;;;;;;10134171;28;20602;-60
2022/04/07 08:03:03;;;;;;;2.38;0.35;;;12.90;90.30;;;;;;10158786;28;20044;-66
2022/04/07 08:07:53;;;;;;;0.80;0.50;;;13.00;90.10;;;;;;10137504;28;20051;-60
2022/04/07 08:12:44;;;;;;;0.90;0.45;;;13.30;90.00;;;;;;10165766;28;20037;-63
2022/04/07 08:17:35;;;;;;;0.55;0.50;;;13.50;89.40;;;;;;10152638;28;20051;-61
2022/04/07 08:22:27;;;;;;;0.93;0.50;;;13.60;89.30;;;;;;10156619;28;20038;-61
2022/04/07 08:27:18;;;;;;;0.50;0.40;;;13.60;89.20;;;;;;10145093;28;20295;-65
2022/04/07 08:32:09;;;;;;;1.85;0.40;;;13.50;89.20;;;;;;10154961;28;20333;-59
2022/04/07 08:36:59;;;;;;;0.28;0.20;;;13.40;89.20;;;;;;10152086;28;20040;-66
2022/04/07 08:41:51;;;;;;;1.77;0.40;;;13.40;89.20;;;;;;10158391;28;20103;-65
2022/04/07 08:46:53;;;;;;;0.55;0.20;;;13.30;89.80;;;;;;10143064;28;20066;-61
2022/04/07 08:51:45;;;;;;;0.60;0.40;;;13.20;89.30;;;;;;10143534;28;20118;-60
2022/04/07 08:56:35;;;;;;;0.47;0.32;;;13.10;89.50;;;;;;10144687;28;20442;-60
2022/04/07 09:01:26;;;;;;;2.42;0.60;;;13.00;89.70;;;;;;10148997;28;20039;-61
2022/04/07 09:06:20;;;;;;;0.77;0.43;;;13.00;89.70;;;;;;10154000;28;20024;-59
2022/04/07 09:11:11;;;;;;;1.42;0.30;;;12.90;89.90;;;;;;10157173;28;20081;-61
2022/04/07 09:16:20;;;;;;;0.50;0.50;;;12.90;90.10;;;;;;10126159;28;20231;-60
2022/04/07 09:21:25;;;;;;;0.73;0.60;;;12.90;90.20;;;;;;10140669;28;20078;-59
2022/04/07 09:26:16;;;;;;;0.30;0.30;;;13.00;90.30;;;;;;10152857;28;20036;-58
2022/04/07 09:31:15;;;;;;;0.77;0.40;;;13.10;90.30;;;;;;10151811;28;20028;-64
2022/04/07 09:36:21;;;;;;;0.65;0.30;;;13.20;90.20;;;;;;10162179;28;20044;-62
2022/04/07 09:41:12;;;;;;;;;;;13.20;90.20;;;;;;10152708;28;20040;-63
2022/04/07 09:46:09;;;;;;;0.73;0.40;;;13.20;90.20;;;;;;10171621;28;19919;-63
2022/04/07 09:51:09;;;;;;;0.32;0.20;;;13.30;90.00;;;;;;10161662;28;20028;-63
2022/04/07 09:56:01;;;;;;;1.33;0.38;;;13.40;90.00;;;;;;10159708;28;20108;-62
2022/04/07 10:00:51;;;;;;;0.30;0.30;;;13.30;90.00;;;;;;10169884;28;20044;-63
2022/04/07 10:05:45;;;;;;;0.47;0.40;;;13.20;90.00;;;;;;10168161;28;20024;-64
2022/04/07 10:10:35;;;;;;;2.92;0.70;;;13.20;90.10;;;;;;10173642;28;20028;-60
2022/04/07 10:15:26;;;;;;;0.57;0.28;;;13.20;90.10;;;;;;10169308;28;20024;-61
2022/04/07 10:20:19;;;;;;;1.10;0.30;;;13.20;90.10;;;;;;10168443;28;20056;-60
2022/04/07 10:25:12;;;;;;;0.73;0.40;;;13.20;90.10;;;;;;10163343;28;20343;-60
2022/04/07 10:30:14;;;;;;;0.55;0.20;;;13.20;90.30;;;;;;10168161;28;20040;-59
2022/04/07 10:35:05;;;;;;;0.73;0.30;;;13.30;89.90;;;;;;10166318;28;20036;-60
2022/04/07 10:39:56;;;;;;;0.20;0.20;;;13.30;90.00;;;;;;10166490;28;20043;-60
2022/04/07 10:45:04;;;;;;;0.30;0.10;;;13.30;89.80;;;;;;10165091;28;20525;-60
2022/04/07 10:49:57;;;;;;;0.43;0.30;;;13.30;90.00;;;;;;10156116;28;20020;-65
2022/04/07 10:55:10;;;;;;;0.70;0.40;;;13.30;90.00;;;;;;10139954;28;20479;-62
2022/04/07 11:00:02;;;;;;;2.47;1.08;;;13.30;90.20;;;;;;10158029;28;20044;-62
2022/04/07 11:04:59;;;;;;;1.58;0.50;;;13.30;90.10;;;;;;10159912;28;20558;-62
2022/04/07 11:09:57;;;;;;;0.80;0.40;;;13.40;90.10;;;;;;10157798;28;20524;-62
2022/04/07 11:14:50;;;;;;;1.65;0.45;;;13.40;90.20;;;;;;10148370;28;20029;-62
2022/04/07 11:19:58;;;;;;;0.68;0.30;;;13.40;90.10;;;;;;10159398;28;20020;-61
2022/04/07 11:24:53;;;;;;;2.33;0.47;;;13.70;89.90;;;;;;10140380;28;20025;-62
2022/04/07 11:30:08;;;;;;;0.75;0.75;;;13.80;89.50;;;;;;10162884;28;20541;-62
2022/04/07 11:35:14;;;;;;;0.35;0.30;;;13.80;89.10;;;;;;10162589;28;20627;-63
2022/04/07 11:40:06;;;;;;;1.25;0.47;;;13.80;89.10;;;;;;10158547;28;20036;-62
2022/04/07 11:44:58;;;;;;;0.17;0.10;;;13.90;89.00;;;;;;10155905;28;20510;-62
2022/04/07 11:49:50;;;;;;;0.20;0.20;;;13.80;88.90;;;;;;10154223;28;20097;-63
2022/04/07 11:54:41;;;;;;;0.75;0.32;;;13.90;88.80;;;;;;10151780;28;20029;-62
2022/04/07 11:59:36;;;;;;;0.10;0.10;;;13.90;88.70;;;;;;10159309;28;20101;-61
2022/04/07 12:04:31;;;;;;;0.00;0.00;;;14.00;88.50;;;;;;10151409;28;20016;-64
2022/04/07 12:09:22;;;;;;;1.40;0.20;;;14.00;88.40;;;;;;10164002;28;20032;-61
2022/04/07 12:14:15;;;;;;;0.25;0.20;;;14.00;88.40;;;;;;10165912;28;20452;-63
2022/04/07 12:19:06;;;;;;;0.10;0.10;;;14.00;88.30;;;;;;10158460;28;20016;-61
2022/04/07 12:24:13;;;;;;;0.65;0.28;;;14.00;88.20;;;;;;10161155;28;20040;-62
2022/04/07 12:29:04;;;;;;;2.33;0.40;;;14.00;88.00;;;;;;10146798;28;20059;-65
2022/04/07 12:34:09;;;;;;;0.63;0.25;;;14.10;88.00;;;;;;10159164;28;20021;-61
2022/04/07 12:39:03;;;;;;;0.47;0.30;;;14.10;87.90;;;;;;10145234;28;20045;-62
2022/04/07 12:43:55;;;;;;;0.17;0.10;;;14.20;87.70;;;;;;10158294;28;20038;-62
2022/04/07 12:49:04;;;;;;;0.22;0.20;;;14.30;87.50;;;;;;10164521;28;20016;-61
2022/04/07 12:54:09;;;;;;;0.68;0.40;;;14.30;87.40;;;;;;10153748;28;20144;-58
2022/04/07 12:59:05;;;;;;;1.10;0.30;;;14.50;87.30;;;;;;10157726;28;20037;-61
2022/04/07 13:03:56;;;;;;;0.30;0.30;;;14.60;86.90;;;;;;10158208;28;20094;-61
2022/04/07 13:08:47;;;;;;;0.45;0.30;;;14.70;86.50;;;;;;10161799;28;20028;-63
2022/04/07 13:13:38;;;;;;;0.40;0.22;;;14.80;86.30;;;;;;10157535;28;20103;-62
2022/04/07 13:18:29;;;;;;;0.38;0.22;;;15.00;85.50;;;;;;10130368;28;20269;-60
2022/04/07 13:23:19;;;;;;;0.85;0.15;;;15.10;84.80;;;;;;10162257;28;20742;-61
2022/04/07 13:28:10;;;;;;;0.13;0.13;;;15.30;84.40;;;;;;10163074;28;20031;-63
2022/04/07 13:33:00;;;;;;;0.30;0.28;;;15.40;84.20;;;;;;10161515;28;20036;-64
2022/04/07 13:37:51;;;;;;;10.07;0.88;;;15.40;83.80;;;;;;10171064;28;20406;-67
2022/04/07 13:42:42;;;;;;;0.82;0.60;;;15.60;82.80;;;;;;10160692;28;20036;-65
2022/04/07 13:47:33;;;;;;;1.70;0.32;;;15.70;82.80;;;;;;10151229;28;20046;-64
2022/04/07 13:52:23;;;;;;;0.60;0.13;;;15.90;82.20;;;;;;10151479;28;20157;-67
2022/04/07 13:57:14;;;;;;;0.47;0.22;;;16.20;81.50;;;;;;10144512;28;20066;-61
2022/04/07 14:02:05;;;;;;;0.77;0.30;;;16.50;81.10;;;;;;10152952;28;20101;-61
2022/04/07 14:07:00;;;;;;;3.63;0.90;;;16.50;80.80;;;;;;10161933;28;20445;-62
2022/04/07 14:11:51;;;;;;;0.57;0.27;;;16.70;80.60;;;;;;10170074;28;20360;-64
2022/04/07 14:16:41;;;;;;;0.20;0.20;;;17.30;79.70;;;;;;10164907;28;20274;-63
2022/04/07 14:21:33;;;;;;;1.85;0.30;;;17.30;79.60;;;;;;10162461;28;20029;-63
2022/04/07 14:26:25;;;;;;;0.30;0.25;;;17.40;79.20;;;;;;10166804;28;20440;-64
2022/04/07 14:31:16;;;;;;;0.20;0.20;;;17.90;78.20;;;;;;10162087;28;20103;-62
2022/04/07 14:36:09;;;;;;;0.98;0.40;;;17.70;78.40;;;;;;10152816;28;20624;-62
2022/04/07 14:40:59;;;;;;;0.35;0.20;;;17.60;78.00;;;;;;10155042;28;20055;-65
2022/04/07 14:45:53;;;;;;;1.17;0.25;;;18.10;77.60;;;;;;10171144;28;20024;-63
2022/04/07 14:50:44;;;;;;;0.30;0.20;;;17.40;78.10;;;;;;10164651;28;20044;-62
2022/04/07 14:55:34;;;;;;;0.10;0.10;;;16.90;78.70;;;;;;10164133;28;20050;-64
2022/04/07 15:00:25;;;;;;;0.60;0.20;;;16.70;79.00;;;;;;10161876;28;20037;-62
2022/04/07 15:05:16;;;;;;;0.30;0.20;;;17.30;78.40;;;;;;10167021;28;20027;-62
2022/04/07 15:10:07;;;;;;;0.55;0.20;;;19.00;76.10;;;;;;10133097;28;20027;-63
2022/04/07 15:14:57;;;;;;;2.38;0.43;;;19.70;74.50;;;;;;10147637;28;20040;-66
2022/04/07 15:19:48;;;;;;;1.40;0.52;;;18.10;77.40;;;;;;10163639;28;20646;-61
2022/04/07 15:24:39;;;;;;;0.68;0.65;;;17.00;80.00;;;;;;10141835;28;20071;-59
2022/04/07 15:29:29;;;;;;;0.20;0.20;;;16.80;79.70;;;;;;10156266;28;20107;-63
2022/04/07 15:34:20;;;;;;;0.13;0.10;;;16.80;79.50;;;;;;10161022;28;20089;-62
2022/04/07 15:39:11;;;;;;;0.43;0.30;;;16.30;80.90;;;;;;10157686;28;20032;-64
2022/04/07 15:44:01;;;;;;;2.03;0.95;;;15.60;82.70;;;;;;10161618;28;20472;-62
2022/04/07 15:48:52;;;;;;;0.45;0.40;;;14.80;84.30;;;;;;10148979;28;20029;-63
2022/04/07 15:53:43;;;;;;;1.73;0.52;;;13.80;88.00;;;;;;10147723;28;20086;-67
2022/04/07 15:58:34;;;;;;;2.70;0.90;;;12.10;91.00;;;;;;10157877;28;20040;-62
2022/04/07 16:03:25;;;;;;;1.75;0.40;;;11.10;93.40;;;;;;10160645;28;20043;-66
2022/04/07 16:08:16;;;;;;;0.75;0.40;;;10.80;94.70;;;;;;10125502;28;20035;-67
2022/04/07 16:13:07;;;;;;;0.88;0.60;;;11.00;94.20;;;;;;10148934;28;20181;-66
2022/04/07 16:18:00;;;;;;;0.77;0.38;;;11.30;94.00;;;;;;10153532;28;20054;-67
2022/04/07 16:22:51;;;;;;;1.63;0.47;;;11.50;94.00;;;;;;10143367;28;20444;-66
2022/04/07 16:27:42;;;;;;;2.42;0.38;;;11.60;94.00;;;;;;10153968;28;20081;-66
2022/04/07 16:32:32;;;;;;;0.55;0.22;;;11.70;94.10;;;;;;10154536;28;20431;-66
2022/04/07 16:37:23;;;;;;;1.23;0.45;;;11.80;94.00;;;;;;10161659;28;20406;-67
2022/04/07 16:42:13;;;;;;;1.25;0.40;;;11.80;94.30;;;;;;10146370;28;20044;-66
2022/04/07 16:47:05;;;;;;;2.28;0.20;;;11.60;94.70;;;;;;10177524;28;20056;-66
2022/04/07 16:51:57;;;;;;;0.73;0.40;;;11.30;95.00;;;;;;10166823;28;20036;-65
2022/04/07 16:56:47;;;;;;;1.05;0.47;;;11.30;95.30;;;;;;10138727;28;20043;-66
2022/04/07 17:01:38;;;;;;;1.58;0.50;;;11.30;95.30;;;;;;10176900;28;20473;-68
2022/04/07 17:06:29;;;;;;;1.13;0.60;;;11.30;95.40;;;;;;10165869;28;20497;-66
2022/04/07 17:11:20;;;;;;;0.80;0.32;;;11.50;95.10;;;;;;10178012;28;20039;-65
2022/04/07 17:16:13;;;;;;;2.42;0.75;;;11.60;95.00;;;;;;10167084;28;20061;-65
2022/04/07 17:21:03;;;;;;;2.33;0.43;;;11.60;95.10;;;;;;10143213;28;20047;-65
2022/04/07 17:25:56;;;;;;;1.85;0.70;;;11.60;95.20;;;;;;10162827;28;20020;-66
2022/04/07 17:30:47;;;;;;;1.67;0.75;;;11.70;95.10;;;;;;10157882;28;20616;-65
2022/04/07 17:35:38;;;;;;;2.22;0.60;;;11.70;95.10;;;;;;10182427;28;20194;-66
2022/04/07 17:40:28;;;;;;;2.85;1.00;;;11.80;95.20;;;;;;10156216;28;20493;-65
2022/04/07 17:45:19;;;;;;;2.88;0.70;;;11.90;95.00;;;;;;10169434;28;20401;-65
2022/04/07 17:50:10;;;;;;;1.58;0.90;;;11.90;95.10;;;;;;10170022;28;20070;-65
2022/04/07 17:55:01;;;;;;;1.67;0.43;;;12.00;95.10;;;;;;10166194;28;20024;-65
2022/04/07 17:59:52;;;;;;;1.35;0.60;;;12.00;95.20;;;;;;10155099;28;20047;-67
2022/04/07 18:04:43;;;;;;;1.80;0.60;;;11.90;95.20;;;;;;10160891;28;20158;-65
2022/04/07 18:09:34;;;;;;;0.95;0.60;;;12.00;95.20;;;;;;10166456;28;20189;-65
2022/04/07 18:14:25;;;;;;;0.73;0.55;;;12.00;95.10;;;;;;10156821;28;20055;-65
2022/04/07 18:19:16;;;;;;;1.00;0.60;;;12.00;95.10;;;;;;10162817;28;20028;-66
2022/04/07 18:24:07;;;;;;;1.85;0.77;;;12.00;95.00;;;;;;10142622;28;20044;-66
2022/04/07 18:28:58;;;;;;;1.98;0.60;;;11.90;95.10;;;;;;10140044;28;20097;-65
2022/04/07 18:33:49;;;;;;;0.75;0.52;;;11.90;95.10;;;;;;10156940;28;20026;-65
2022/04/07 18:38:40;;;;;;;1.70;0.70;;;11.90;95.00;;;;;;10156096;28;20519;-64
2022/04/07 18:43:30;;;;;;;4.00;1.20;;;11.90;95.00;;;;;;10134145;28;20050;-66
2022/04/07 18:48:21;;;;;;;1.98;0.90;;;11.80;94.90;;;;;;10160891;28;20094;-65
2022/04/07 18:53:15;;;;;;;2.60;1.00;;;11.80;95.00;;;;;;10161588;28;20035;-65
2022/04/07 18:58:06;;;;;;;1.95;1.23;;;11.80;95.00;;;;;;10154332;28;20034;-66
2022/04/07 19:02:57;;;;;;;2.20;0.80;;;11.90;95.00;;;;;;10153936;28;20028;-64
2022/04/07 19:07:48;;;;;;;1.35;0.75;;;12.00;94.90;;;;;;10168599;28;20317;-65
2022/04/07 19:12:43;;;;;;;2.67;1.52;;;12.00;94.70;;;;;;10147438;28;20034;-65
2022/04/07 19:17:34;;;;;;;1.88;1.50;;;12.00;94.70;;;;;;10146619;28;20465;-64
2022/04/07 19:22:25;;;;;;;2.17;0.98;;;12.00;94.70;;;;;;10155642;28;20040;-65
2022/04/07 19:27:16;;;;;;;1.55;0.73;;;12.00;94.70;;;;;;10153637;28;20513;-66
2022/04/07 19:32:07;;;;;;;1.38;0.90;;;11.90;94.60;;;;;;10148320;28;20036;-65
2022/04/07 19:36:58;;;;;;;1.80;0.93;;;11.90;94.60;;;;;;10147329;28;20047;-63
2022/04/07 19:41:49;;;;;;;3.25;1.10;;;11.90;94.60;;;;;;10155961;28;20044;-64
2022/04/07 19:46:41;;;;;;;5.82;1.45;;;11.90;94.60;;;;;;10151183;28;20505;-65
2022/04/07 19:51:32;;;;;;;3.10;0.93;;;11.90;94.50;;;;;;10147760;28;20033;-65
2022/04/07 19:56:23;;;;;;;4.28;1.77;;;11.80;94.70;;;;;;10152064;28;20024;-65
2022/04/07 20:01:14;;;;;;;4.45;1.30;;;11.70;94.50;;;;;;10152661;28;20082;-64
2022/04/07 20:06:05;;;;;;;3.15;1.88;;;11.70;94.60;;;;;;10153364;28;20074;-67
2022/04/07 20:10:56;;;;;;;4.28;1.15;;;11.80;94.50;;;;;;10158356;28;20020;-64
2022/04/07 20:15:46;;;;;;;4.80;1.13;;;12.10;94.10;;;;;;10149112;28;20107;-65
2022/04/07 20:20:37;;;;;;;2.83;0.95;;;12.40;93.80;;;;;;10134584;28;20040;-66
2022/04/07 20:25:28;;;;;;;1.40;0.70;;;12.40;93.40;;;;;;10153647;28;20071;-65
2022/04/07 20:30:22;;;;;;;5.03;2.35;;;12.40;93.20;;;;;;10138084;28;20032;-65
2022/04/07 20:35:13;;;;;;;4.70;1.25;;;12.50;93.20;;;;;;10139855;28;20482;-66
2022/04/07 20:40:04;;;;;;;3.00;1.35;;;12.50;93.20;;;;;;10136095;28;20070;-65
2022/04/07 20:44:55;;;;;;;2.90;1.10;;;12.30;93.10;;;;;;10153723;28;20485;-66
2022/04/07 20:49:46;;;;;;;3.50;0.95;;;12.30;93.00;;;;;;10158302;28;20024;-65
2022/04/07 20:54:38;;;;;;;2.88;1.08;;;12.30;92.90;;;;;;10152621;28;20036;-67
2022/04/07 20:59:29;;;;;;;5.07;1.50;;;12.20;92.70;;;;;;10157217;28;20020;-66
2022/04/07 21:04:20;;;;;;;2.45;0.95;;;12.20;92.50;;;;;;10160294;28;20036;-66
2022/04/07 21:09:11;;;;;;;4.68;1.45;;;12.20;92.20;;;;;;10153419;28;20502;-66
2022/04/07 21:14:02;;;;;;;3.25;1.33;;;12.10;92.10;;;;;;10156477;28;20522;-65
2022/04/07 21:18:52;;;;;;;6.50;1.80;;;12.10;91.80;;;;;;10159625;28;20145;-65
2022/04/07 21:23:43;;;;;;;4.97;2.00;;;12.00;91.60;;;;;;10128712;28;20041;-65
2022/04/07 21:28:46;;;;;;;2.60;1.30;;;12.00;91.50;;;;;;10135255;28;20032;-67
2022/04/07 21:33:37;;;;;;;5.63;1.55;;;12.00;91.20;;;;;;10143561;28;20463;-65
2022/04/07 21:38:27;;;;;;;3.78;1.08;;;12.00;90.90;;;;;;10168553;28;20037;-64
2022/04/07 21:43:18;;;;;;;2.60;1.58;;;12.00;90.70;;;;;;10160299;28;20496;-65
2022/04/07 21:48:09;;;;;;;3.05;1.35;;;12.00;90.80;;;;;;10160551;28;20020;-65
2022/04/07 21:53:00;;;;;;;4.63;1.55;;;11.90;90.50;;;;;;10146124;28;20127;-66
2022/04/07 21:57:51;;;;;;;2.13;1.08;;;12.00;90.50;;;;;;10164105;28;20102;-65
2022/04/07 22:02:42;;;;;;;2.72;1.00;;;11.90;90.40;;;;;;10158872;28;20510;-66
2022/04/07 22:07:33;;;;;;;6.68;1.40;;;11.90;90.20;;;;;;10158340;28;20044;-64
2022/04/07 22:12:23;;;;;;;6.70;1.83;;;11.80;90.20;;;;;;10167276;28;20591;-65
2022/04/07 22:17:14;;;;;;;2.95;0.80;;;11.90;89.70;;;;;;10157285;28;20020;-66
2022/04/07 22:22:05;;;;;;;6.80;1.15;;;11.90;89.00;;;;;;10144285;28;20657;-65
2022/04/07 22:26:56;;;;;;;5.50;1.00;;;11.80;88.70;;;;;;10168026;28;20498;-67
2022/04/07 22:31:46;;;;;;;3.17;1.25;;;11.80;87.90;;;;;;10169279;28;20032;-66
2022/04/07 22:36:39;;;;;;;4.63;1.30;;;11.80;87.10;;;;;;10171340;28;20052;-65
2022/04/07 22:41:29;;;;;;;3.30;0.80;;;11.80;86.70;;;;;;10164205;28;20032;-65
2022/04/07 22:46:20;;;;;;;20.80;2.92;;;11.80;85.10;;;;;;10149302;28;20561;-66
2022/04/07 22:51:11;;;;;;;4.82;1.52;;;11.80;85.10;;;;;;10151819;28;20479;-66
2022/04/07 22:56:01;;;;;;;1.75;0.65;;;11.80;84.80;;;;;;10150861;28;20156;-64
2022/04/07 23:00:54;;;;;;;1.73;0.77;;;11.80;84.60;;;;;;10150861;28;20089;-63
2022/04/07 23:05:45;;;;;;;2.78;1.00;;;11.70;84.20;;;;;;10150321;28;20033;-64
2022/04/07 23:10:35;;;;;;;3.17;0.82;;;11.80;84.10;;;;;;10151746;28;20394;-64
2022/04/07 23:15:26;;;;;;;3.08;1.33;;;11.70;83.80;;;;;;10155908;28;20029;-64
2022/04/07 23:20:18;;;;;;;5.55;1.27;;;11.70;83.80;;;;;;10162537;28;20124;-63
2022/04/07 23:25:09;;;;;;;2.45;0.60;;;11.70;83.70;;;;;;10147828;28;20032;-63
2022/04/07 23:30:00;;;;;;;3.13;1.45;;;11.70;83.20;;;;;;10152784;28;20119;-63
2022/04/07 23:34:52;;;;;;;3.60;0.55;;;11.70;83.20;;;;;;10161870;28;20119;-62
2022/04/07 23:39:42;;;;;;;5.65;1.38;;;11.60;82.90;;;;;;10150282;28;20052;-63
2022/04/07 23:44:33;;;;;;;4.40;1.20;;;11.60;82.80;;;;;;10162623;28;20587;-61
2022/04/07 23:49:24;;;;;;;1.92;0.70;;;11.60;82.20;;;;;;10162861;28;20113;-62
2022/04/07 23:54:14;;;;;;;4.97;0.77;;;11.50;82.10;;;;;;10156666;28;20025;-61
2022/04/07 23:59:05;;;;;;;7.45;1.23;;;11.50;81.70;;;;;;10154678;28;20024;-63
